createdAt,value
2018-12-09T00:12:55.471Z,40.42
2018-12-09T00:18:06.628Z,40.54
2018-12-09T00:23:16.630Z,40.13
2018-12-09T00:28:26.508Z,40.46
2018-12-09T00:34:03.685Z,40.02
2018-12-09T00:39:14.456Z,40.36
2018-12-09T00:44:31.587Z,40.04
2018-12-09T00:49:42.781Z,40.32
2018-12-09T00:54:53.701Z,40.35
2018-12-09T01:00:13.589Z,40.11
2018-12-09T01:05:25.298Z,40.44
2018-12-09T01:11:06.296Z,40.17
2018-12-09T01:16:18.753Z,40.38
2018-12-09T01:21:30.372Z,40.48
2018-12-09T01:26:40.555Z,40.60
2018-12-09T01:32:02.178Z,40.33
2018-12-09T01:37:12.859Z,40.16
2018-12-09T01:42:23.719Z,40.39
2018-12-09T01:47:34.627Z,40.35
2018-12-09T01:52:52.815Z,40.70
2018-12-09T01:58:03.269Z,40.51
2018-12-09T02:03:15.773Z,40.35
2018-12-09T02:08:27.780Z,40.34
2018-12-09T02:16:49.879Z,40.37
2018-12-09T02:22:32.289Z,40.16
2018-12-09T02:27:45.741Z,40.58
2018-12-09T02:32:57.419Z,40.60
2018-12-09T02:38:08.605Z,40.47
2018-12-09T02:43:19.304Z,40.16
2018-12-09T02:48:30.562Z,40.43
2018-12-09T02:57:50.312Z,40.66
2018-12-09T03:03:08.597Z,40.60
2018-12-09T03:08:19.564Z,40.24
2018-12-09T03:13:43.712Z,40.24
2018-12-09T03:18:55.297Z,40.54
2018-12-09T03:24:18.680Z,40.26
2018-12-09T03:29:29.911Z,40.71
2018-12-09T03:35:07.700Z,40.40
2018-12-09T03:40:18.563Z,40.29
2018-12-09T03:45:29.761Z,40.59
2018-12-09T03:50:41.477Z,40.72
2018-12-09T03:55:52.798Z,40.48
2018-12-09T04:01:07.549Z,40.53
2018-12-09T04:06:18.557Z,40.71
2018-12-09T04:11:58.741Z,40.61
2018-12-09T04:17:09.661Z,40.66
2018-12-09T04:22:20.821Z,40.41
2018-12-09T04:27:33.702Z,40.23
2018-12-09T04:32:47.567Z,40.49
2018-12-09T04:37:58.743Z,40.15
2018-12-09T04:43:22.587Z,40.38
2018-12-09T04:48:37.462Z,40.31
2018-12-09T04:53:47.511Z,40.15
2018-12-09T04:59:17.618Z,40.48
2018-12-09T05:04:29.601Z,40.35
2018-12-09T05:09:40.886Z,40.16
2018-12-09T05:14:51.686Z,40.11
2018-12-09T05:20:06.701Z,40.02
2018-12-09T05:26:03.344Z,40.06
2018-12-09T05:31:45.856Z,39.94
2018-12-09T05:36:57.582Z,39.94
2018-12-09T05:42:15.464Z,40.11
2018-12-09T05:47:26.851Z,39.90
2018-12-09T05:52:38.607Z,39.59
2018-12-09T05:57:50.546Z,39.66
2018-12-09T06:03:01.803Z,30.64
2018-12-09T06:08:14.609Z,20.86
2018-12-09T06:13:41.465Z,20.25
2018-12-09T06:18:53.296Z,21.89
2018-12-09T06:24:14.568Z,24.21
2018-12-09T06:29:25.776Z,25.99
2018-12-09T06:34:36.770Z,27.80
2018-12-09T06:39:48.789Z,29.49
2018-12-09T06:44:59.566Z,31.08
2018-12-09T06:50:12.832Z,31.99
2018-12-09T06:55:24.584Z,32.82
2018-12-09T07:01:01.593Z,33.86
2018-12-09T07:06:12.755Z,34.74
2018-12-09T07:17:15.712Z,35.62
2018-12-09T07:22:27.308Z,36.50
2018-12-09T07:27:38.636Z,36.62
2018-12-09T07:32:51.805Z,37.01
2018-12-09T07:38:02.575Z,36.69
2018-12-09T07:43:35.586Z,37.74
2018-12-09T07:48:46.794Z,37.85
2018-12-09T07:53:57.612Z,37.73
2018-12-09T07:59:11.560Z,38.23
2018-12-09T08:04:22.920Z,37.92
2018-12-09T08:09:37.509Z,38.04
2018-12-09T08:14:47.531Z,37.96
2018-12-09T08:19:58.547Z,38.44
2018-12-09T08:25:09.827Z,38.41
2018-12-09T08:30:21.216Z,38.69
2018-12-09T08:35:32.320Z,38.55
2018-12-09T08:40:43.639Z,38.71
2018-12-09T08:45:53.531Z,38.57
2018-12-09T08:51:05.437Z,39.17
2018-12-09T08:56:15.535Z,38.50
2018-12-09T09:04:10.588Z,39.67
2018-12-09T09:09:21.876Z,39.89
2018-12-09T09:14:32.746Z,39.95
2018-12-09T09:19:43.967Z,39.49
2018-12-09T09:24:54.317Z,39.75
2018-12-09T09:30:08.870Z,39.77
2018-12-09T09:35:19.756Z,39.52
2018-12-09T09:40:30.547Z,39.35
2018-12-09T09:45:40.562Z,39.88
2018-12-09T09:50:51.992Z,39.48
2018-12-09T09:56:02.578Z,39.69
2018-12-09T10:01:13.908Z,39.67
2018-12-09T10:06:24.867Z,39.85
2018-12-09T10:11:36.518Z,40.14
2018-12-09T10:16:47.623Z,40.11
2018-12-09T10:21:58.764Z,40.02
2018-12-09T10:27:10.565Z,40.51
2018-12-09T10:32:20.903Z,40.46
2018-12-09T10:37:31.576Z,39.94
2018-12-09T10:42:46.534Z,39.45
2018-12-09T10:47:56.771Z,39.49
2018-12-09T10:53:07.807Z,39.86
2018-12-09T10:58:19.310Z,39.78
2018-12-09T11:03:37.465Z,39.93
2018-12-09T11:08:48.760Z,39.35
2018-12-09T11:13:59.927Z,38.54
2018-12-09T11:19:13.187Z,39.20
2018-12-09T11:24:24.710Z,39.11
2018-12-09T11:29:35.590Z,39.19
2018-12-09T11:34:46.614Z,38.61
2018-12-09T11:38:48.293Z,38.86
2018-12-09T11:43:58.575Z,39.51
2018-12-09T11:49:09.728Z,39.30
2018-12-09T11:54:20.519Z,39.07
2018-12-09T11:59:32.205Z,39.37
2018-12-09T12:04:42.595Z,39.25
2018-12-09T12:09:53.893Z,39.43
2018-12-09T12:15:04.816Z,39.61
2018-12-09T12:20:15.876Z,39.89
2018-12-09T12:25:26.327Z,39.84
2018-12-09T12:30:37.742Z,39.72
2018-12-09T12:35:48.570Z,39.46
2018-12-09T12:40:59.500Z,39.69
2018-12-09T12:46:11.315Z,39.66
2018-12-09T12:51:22.613Z,39.50
2018-12-09T12:56:34.201Z,39.66
2018-12-09T13:01:45.563Z,40.04
2018-12-09T13:06:58.575Z,39.95
2018-12-09T13:12:15.584Z,40.00
2018-12-09T13:17:26.769Z,39.91
2018-12-09T13:22:37.849Z,40.15
2018-12-09T13:27:48.557Z,39.85
2018-12-09T13:32:58.545Z,37.59
2018-12-09T13:38:14.567Z,35.63
2018-12-09T13:43:25.892Z,35.66
2018-12-09T13:48:36.866Z,36.14
2018-12-09T13:53:49.338Z,36.65
2018-12-09T13:59:00.596Z,36.73
2018-12-09T14:04:11.552Z,37.29
2018-12-09T14:09:23.755Z,37.37
2018-12-09T14:14:34.385Z,37.69
2018-12-09T14:19:45.657Z,38.23
2018-12-09T14:24:55.797Z,38.28
2018-12-09T14:30:07.523Z,38.24
2018-12-09T14:35:18.694Z,38.38
2018-12-09T14:40:32.593Z,38.69
2018-12-09T14:45:48.920Z,38.71
2018-12-09T14:50:55.659Z,39.02
2018-12-09T14:56:06.444Z,38.69
2018-12-09T15:01:18.782Z,39.17
2018-12-09T15:05:00.456Z,39.00
2018-12-09T15:10:11.747Z,37.40
2018-12-09T15:15:23.304Z,38.27
2018-12-09T15:20:34.547Z,38.32
2018-12-09T15:25:45.724Z,38.22
2018-12-09T15:30:59.566Z,38.44
2018-12-09T15:36:09.863Z,38.86
2018-12-09T15:41:30.715Z,38.62
2018-12-09T15:46:41.595Z,38.82
2018-12-09T15:51:52.772Z,38.99
2018-12-09T15:57:03.770Z,39.08
2018-12-09T16:02:15.624Z,39.26
2018-12-09T16:07:26.668Z,39.17
2018-12-09T16:12:37.578Z,39.04
2018-12-09T16:17:49.613Z,39.21
2018-12-09T16:22:59.619Z,39.21
2018-12-09T16:28:10.786Z,39.08
2018-12-09T16:33:38.884Z,39.10
2018-12-09T16:38:49.588Z,38.85
2018-12-09T16:44:06.676Z,39.31
2018-12-09T16:49:17.537Z,38.99
2018-12-09T16:54:28.679Z,39.23
2018-12-09T16:59:39.897Z,39.15
2018-12-09T17:04:50.861Z,38.82
2018-12-09T17:10:06.692Z,39.47
2018-12-09T17:15:19.202Z,39.03
2018-12-09T17:20:37.870Z,39.28
2018-12-09T17:25:48.586Z,39.40
2018-12-09T17:31:12.199Z,39.05
2018-12-09T17:36:23.629Z,39.34
2018-12-09T17:41:58.849Z,39.16
2018-12-09T17:47:09.771Z,39.16
2018-12-09T17:52:20.588Z,38.95
2018-12-09T17:57:31.800Z,39.17
2018-12-09T18:02:42.753Z,39.21
2018-12-09T18:07:53.875Z,39.38
2018-12-09T18:13:04.907Z,39.14
2018-12-09T18:21:00.397Z,38.97
2018-12-09T18:26:11.665Z,39.12
2018-12-09T18:31:22.788Z,39.03
2018-12-09T18:36:33.868Z,39.27
2018-12-09T18:47:38.623Z,39.20
2018-12-09T18:52:53.356Z,39.21
2018-12-09T18:58:06.339Z,38.95
2018-12-09T19:03:30.866Z,37.79
2018-12-09T19:08:42.307Z,37.79
2018-12-09T19:14:01.867Z,38.11
2018-12-09T19:19:14.601Z,37.81
2018-12-09T19:24:31.594Z,36.98
2018-12-09T19:29:43.300Z,37.04
2018-12-09T19:34:53.526Z,36.85
2018-12-09T19:40:09.964Z,37.06
2018-12-09T19:45:20.563Z,37.02
2018-12-09T19:50:40.362Z,36.64
2018-12-09T19:55:52.613Z,36.77
2018-12-09T20:06:55.661Z,36.83
2018-12-09T20:12:06.899Z,36.83
2018-12-09T20:17:19.765Z,36.96
2018-12-09T20:22:32.975Z,37.10
2018-12-09T20:27:43.801Z,36.85
2018-12-09T20:32:54.616Z,36.92
2018-12-09T20:38:05.587Z,37.65
2018-12-09T20:43:26.603Z,37.67
2018-12-09T20:48:37.508Z,37.88
2018-12-09T20:54:19.816Z,38.32
2018-12-09T20:59:30.604Z,37.97
2018-12-09T21:04:41.784Z,38.22
2018-12-09T21:09:56.468Z,38.23
2018-12-09T21:15:09.421Z,38.42
2018-12-09T21:20:26.918Z,38.40
2018-12-09T21:28:28.479Z,38.53
2018-12-09T21:33:45.253Z,38.29
2018-12-09T21:39:02.783Z,38.36
2018-12-09T21:44:34.746Z,38.56
2018-12-09T21:49:49.531Z,38.46
2018-12-09T21:55:01.329Z,38.14
2018-12-09T22:00:55.833Z,38.45
2018-12-09T22:06:08.648Z,38.62
2018-12-09T22:17:08.892Z,38.52
2018-12-09T22:22:19.758Z,38.49
2018-12-09T22:27:31.565Z,38.37
2018-12-09T22:32:58.883Z,38.30
2018-12-09T22:38:09.616Z,38.77
2018-12-09T22:43:23.874Z,38.45
2018-12-09T22:48:34.865Z,38.55
2018-12-09T22:53:49.715Z,38.71
2018-12-09T22:59:01.712Z,38.67
2018-12-09T23:04:21.331Z,38.71
2018-12-09T23:09:40.854Z,38.34
2018-12-09T23:14:52.211Z,38.43
2018-12-09T23:20:03.774Z,38.39
2018-12-09T23:25:14.811Z,38.38
2018-12-09T23:30:25.979Z,38.64
2018-12-09T23:35:35.527Z,38.50
2018-12-09T23:40:46.814Z,38.77
2018-12-09T23:45:57.648Z,39.17
2018-12-09T23:51:11.901Z,38.92
2018-12-09T23:56:23.729Z,38.82
